Impacts TAF Board
For situational awareness. Not to be used for flight planning purposes.
IDs:

KCVG - Cincinnati Intl, KY, US

Issued at 2027 UTC 19 May 2019
Updated at 2028 UTC 19 May 2019
Potential Impact None Slight Moderate High
Time<<20/09Z 20/10Z 20/11Z 20/12Z 20/13Z 20/14Z 20/15Z 20/16Z 20/17Z 20/18Z 20/19Z 20/20Z 20/21Z>>
Type PRVL PRVL PRVL PRVL PRVL PRVL PRVL PRVL PRVL PRVL PRVL PRVL PRVL
VIS >6 >6 >6 >6 >6 >6 >6 >6 >6 >6 >6 >6 >6
CIG 80 15 15 15 15 15 15 35 35 35 35 35 35
Cover BKN BKN BKN BKN BKN BKN BKN BKN BKN BKN BKN BKN BKN
FltCat VFR MVFR MVFR MVFR MVFR MVFR MVFR VFR VFR VFR VFR VFR VFR
WX -- -- -- -- -- -- -- -- -- -- -- -- --
WDir 240 250 250 250 250 250 250 270 270 270 270 270 270
WSpd 9 6 6 6 6 6 6 10 10 10 10 10 10
WGst -- -- -- -- -- -- -- -- -- -- -- -- --
Raw TAF
KCVG 192027Z 1920/2024 21015G30KT P6SM -SHRA SCT015 OVC040
  TEMPO 1921/1922 OVC015
  FM192300 21014G24KT P6SM VCSH SCT015 BKN040
  FM200100 21012G20KT P6SM VCTS SCT040CB BKN080
  FM200600 24009KT P6SM SCT040 BKN080
  FM201000 25006KT P6SM BKN015
  FM201600 27010KT P6SM BKN035


METAR Board
Radar Display
Forecast Discussion
For situational awareness. Not to be used for flight planning purposes.